Time;durP1;ratioP1;P1;durP2;ratioP2;P2;SDS_P1;SDS_P2;PMS_P1;PMS_P2;Temp;Humidity;BMP_temperature;BMP_pressure;BME280_temperature;BME280_humidity;BME280_pressure;Samples;Min_cycle;Max_cycle;Signal;HPM_P1;HPM_P2
2021/05/29 00:00:15;;;;;;;5.50;5.00;;;10.90;99.90;;;;;;5034367;28;20434;-68
2021/05/29 00:02:41;;;;;;;5.27;4.77;;;10.90;99.90;;;;;;5034279;28;20224;-68
2021/05/29 00:05:08;;;;;;;5.80;5.03;;;10.90;99.90;;;;;;5034170;28;20424;-68
2021/05/29 00:07:34;;;;;;;11.13;7.50;;;10.80;99.90;;;;;;5033950;28;20820;-68
2021/05/29 00:10:00;;;;;;;6.87;5.20;;;10.80;99.90;;;;;;5034057;28;20410;-68
2021/05/29 00:12:26;;;;;;;5.97;5.13;;;10.80;99.90;;;;;;5046199;28;20466;-69
2021/05/29 00:14:53;;;;;;;6.43;5.20;;;10.80;99.90;;;;;;5052976;28;20492;-69
2021/05/29 00:17:20;;;;;;;8.23;5.90;;;10.70;99.90;;;;;;5054076;28;20390;-69
2021/05/29 00:19:46;;;;;;;4.90;4.40;;;10.70;99.90;;;;;;5053184;28;20511;-68
2021/05/29 00:22:11;;;;;;;7.80;5.17;;;10.70;99.90;;;;;;5044058;28;20464;-68
2021/05/29 00:24:37;;;;;;;7.60;6.37;;;10.70;99.90;;;;;;5033679;28;20421;-68
2021/05/29 00:27:03;;;;;;;5.70;5.00;;;10.70;99.90;;;;;;5033839;28;20690;-68
2021/05/29 00:29:29;;;;;;;5.40;4.90;;;10.70;99.90;;;;;;5033851;28;20164;-69
2021/05/29 00:31:54;;;;;;;6.60;5.40;;;10.70;99.90;;;;;;5034516;28;20417;-68
2021/05/29 00:34:20;;;;;;;7.20;5.20;;;10.60;99.90;;;;;;5033372;28;20211;-68
2021/05/29 00:36:46;;;;;;;5.23;4.73;;;10.60;99.90;;;;;;5041417;28;20171;-68
2021/05/29 00:39:12;;;;;;;5.77;4.37;;;10.60;99.90;;;;;;5053619;28;20160;-68
2021/05/29 00:41:37;;;;;;;5.70;5.10;;;10.60;99.90;;;;;;5053512;28;20166;-68
2021/05/29 00:44:03;;;;;;;9.50;5.47;;;10.60;99.90;;;;;;5053497;28;20400;-68
2021/05/29 00:46:29;;;;;;;6.17;5.50;;;10.60;99.90;;;;;;5053560;28;20520;-68
2021/05/29 00:48:55;;;;;;;7.30;5.67;;;10.60;99.90;;;;;;5037137;28;20409;-68
2021/05/29 00:51:20;;;;;;;7.57;5.37;;;10.60;99.90;;;;;;5033236;28;20170;-68
2021/05/29 00:53:47;;;;;;;8.53;5.77;;;10.60;99.90;;;;;;5033320;28;20162;-68
2021/05/29 00:56:12;;;;;;;9.33;6.80;;;10.60;99.90;;;;;;5033170;28;20190;-68
2021/05/29 00:58:40;;;;;;;8.10;5.80;;;10.60;99.90;;;;;;5033248;28;20479;-68
2021/05/29 01:01:06;;;;;;;5.97;5.30;;;10.50;99.90;;;;;;5033383;28;20168;-68
2021/05/29 01:03:35;;;;;;;6.07;5.47;;;10.50;99.90;;;;;;5033204;28;20392;-68
2021/05/29 01:06:01;;;;;;;8.27;5.47;;;10.50;99.90;;;;;;5033178;28;20184;-68
2021/05/29 01:08:27;;;;;;;6.17;5.60;;;10.50;99.90;;;;;;5033070;28;20886;-68
2021/05/29 01:10:53;;;;;;;5.90;5.30;;;10.40;99.90;;;;;;5033200;28;20165;-68
2021/05/29 01:13:22;;;;;;;5.37;4.87;;;10.40;99.90;;;;;;5052620;28;20178;-68
2021/05/29 01:15:49;;;;;;;8.00;5.50;;;10.40;99.90;;;;;;5052972;28;21025;-68
2021/05/29 01:18:17;;;;;;;6.37;5.60;;;10.40;99.90;;;;;;5052858;28;20392;-68
2021/05/29 01:20:44;;;;;;;6.03;5.43;;;10.30;99.90;;;;;;5050931;28;20420;-68
2021/05/29 01:23:10;;;;;;;7.13;5.83;;;10.30;99.90;;;;;;5034941;28;20444;-68
2021/05/29 01:25:38;;;;;;;7.53;5.00;;;10.20;99.90;;;;;;5032905;28;20390;-68
2021/05/29 01:30:49;;;;;;;6.20;5.63;;;10.20;99.90;;;;;;5152057;27;21039;-69
2021/05/29 01:33:19;;;;;;;5.80;5.30;;;10.20;99.90;;;;;;5151979;27;20384;-69
2021/05/29 01:35:47;;;;;;;7.30;5.47;;;10.20;99.90;;;;;;5132596;27;20465;-69
2021/05/29 01:38:15;;;;;;;7.10;5.80;;;10.10;99.90;;;;;;5133564;27;20385;-69
2021/05/29 01:40:40;;;;;;;7.00;5.30;;;10.10;99.90;;;;;;5151808;27;20693;-69
2021/05/29 01:43:09;;;;;;;6.20;5.60;;;10.10;99.90;;;;;;5151924;27;20380;-69
2021/05/29 01:45:36;;;;;;;6.97;6.20;;;10.00;99.90;;;;;;5151885;27;20157;-69
2021/05/29 01:48:04;;;;;;;10.40;6.27;;;10.00;99.90;;;;;;5151536;27;20879;-69
2021/05/29 01:50:30;;;;;;;7.33;5.80;;;10.00;99.90;;;;;;5151279;27;20454;-69
2021/05/29 01:52:58;;;;;;;6.60;5.90;;;10.00;99.90;;;;;;5151529;27;20489;-69
2021/05/29 01:55:26;;;;;;;6.87;5.30;;;10.00;99.90;;;;;;5151573;27;20423;-69
2021/05/29 01:57:53;;;;;;;6.70;5.70;;;10.00;99.90;;;;;;5151502;27;20980;-69
2021/05/29 02:00:21;;;;;;;8.90;6.13;;;9.90;99.90;;;;;;5132891;27;20430;-69
2021/05/29 02:02:47;;;;;;;6.63;5.60;;;9.90;99.90;;;;;;5129910;28;20463;-69
2021/05/29 02:05:16;;;;;;;7.90;5.50;;;9.90;99.90;;;;;;5130523;28;20428;-69
2021/05/29 02:07:42;;;;;;;6.77;5.10;;;9.90;99.90;;;;;;5131084;28;20959;-70
2021/05/29 02:10:10;;;;;;;9.43;5.77;;;9.90;99.90;;;;;;5130452;28;20572;-69
2021/05/29 02:12:41;;;;;;;8.83;5.50;;;9.80;99.90;;;;;;5130383;28;20551;-69
2021/05/29 02:15:09;;;;;;;8.33;5.90;;;9.80;99.90;;;;;;5130946;28;20455;-69
2021/05/29 02:17:35;;;;;;;6.20;5.00;;;9.80;99.90;;;;;;5129853;28;20780;-72
2021/05/29 02:20:00;;;;;;;7.47;5.83;;;9.70;99.90;;;;;;5130378;28;20396;-72
2021/05/29 02:22:26;;;;;;;6.17;5.40;;;9.70;99.90;;;;;;5130528;28;20951;-72
2021/05/29 02:24:52;;;;;;;8.47;6.20;;;9.70;99.90;;;;;;5130238;28;20165;-72
2021/05/29 02:27:17;;;;;;;5.30;4.80;;;9.60;99.90;;;;;;5130285;28;20154;-72
2021/05/29 02:29:43;;;;;;;5.87;5.37;;;9.60;99.90;;;;;;5130626;27;20409;-72
2021/05/29 02:32:08;;;;;;;5.77;5.37;;;9.60;99.90;;;;;;5129615;28;20182;-72
2021/05/29 02:34:34;;;;;;;6.60;5.80;;;9.60;99.90;;;;;;5130094;28;20192;-72
2021/05/29 02:37:00;;;;;;;6.53;5.93;;;9.50;99.90;;;;;;5130077;28;20158;-73
2021/05/29 02:39:25;;;;;;;8.10;5.50;;;9.50;99.90;;;;;;5129953;28;20158;-73
2021/05/29 02:41:51;;;;;;;5.80;5.30;;;9.50;99.90;;;;;;5118070;28;20155;-72
2021/05/29 02:44:16;;;;;;;6.83;5.77;;;9.40;99.90;;;;;;5116651;28;20264;-72
2021/05/29 02:46:42;;;;;;;8.50;5.83;;;9.40;99.90;;;;;;5115850;28;20182;-73
2021/05/29 02:49:07;;;;;;;6.27;5.77;;;9.40;99.90;;;;;;5116094;28;20603;-72
2021/05/29 02:51:33;;;;;;;7.53;6.27;;;9.40;99.90;;;;;;5116032;28;20155;-73
2021/05/29 02:53:59;;;;;;;7.03;5.43;;;9.40;99.90;;;;;;5115875;28;20150;-72
2021/05/29 02:56:24;;;;;;;7.07;6.07;;;9.30;99.90;;;;;;5116032;28;20158;-72
2021/05/29 02:58:50;;;;;;;6.57;5.90;;;9.30;99.90;;;;;;5115886;27;20279;-72
2021/05/29 03:01:15;;;;;;;7.67;6.27;;;9.30;99.90;;;;;;5115577;28;20265;-73
2021/05/29 03:03:41;;;;;;;6.90;6.20;;;9.30;99.90;;;;;;5115672;28;20686;-72
2021/05/29 03:06:06;;;;;;;8.67;6.60;;;9.30;99.90;;;;;;5115797;28;20462;-73
2021/05/29 03:08:32;;;;;;;7.90;7.10;;;9.30;99.90;;;;;;5115700;28;20204;-72
2021/05/29 03:10:58;;;;;;;10.47;6.90;;;9.30;99.90;;;;;;5115655;28;20565;-72
2021/05/29 03:13:23;;;;;;;7.97;6.93;;;9.20;99.90;;;;;;5115884;28;20623;-72
2021/05/29 03:15:49;;;;;;;7.53;6.73;;;9.20;99.90;;;;;;5115338;28;20174;-72
2021/05/29 03:18:15;;;;;;;6.87;5.80;;;9.20;99.90;;;;;;5115582;28;20162;-72
2021/05/29 03:20:41;;;;;;;8.00;6.57;;;9.20;99.90;;;;;;5115286;28;20197;-72
2021/05/29 03:23:07;;;;;;;6.50;5.90;;;9.20;99.90;;;;;;5115714;28;20154;-72
2021/05/29 03:25:33;;;;;;;9.23;6.90;;;9.20;99.90;;;;;;5115717;28;20500;-72
2021/05/29 03:27:58;;;;;;;8.63;5.80;;;9.10;99.90;;;;;;5115620;28;20396;-72
2021/05/29 03:30:27;;;;;;;7.10;6.40;;;9.10;99.90;;;;;;5114033;28;20794;-73
2021/05/29 03:32:54;;;;;;;6.50;5.90;;;9.10;99.90;;;;;;5115242;28;20193;-73
2021/05/29 03:35:20;;;;;;;7.00;6.30;;;9.10;99.90;;;;;;5115212;28;20768;-73
2021/05/29 03:37:46;;;;;;;9.50;5.90;;;9.10;99.90;;;;;;5115239;28;20496;-73
2021/05/29 03:40:13;;;;;;;6.80;6.20;;;9.10;99.90;;;;;;5115494;28;20403;-72
2021/05/29 03:42:39;;;;;;;6.43;5.40;;;9.10;99.90;;;;;;5115115;28;20419;-73
2021/05/29 03:45:12;;;;;;;6.73;6.10;;;9.10;99.90;;;;;;5113229;28;20435;-72
2021/05/29 03:47:39;;;;;;;8.20;6.70;;;9.00;99.90;;;;;;5094551;28;20401;-72
2021/05/29 03:50:06;;;;;;;6.33;5.73;;;9.10;99.90;;;;;;5099060;28;20546;-72
2021/05/29 03:52:32;;;;;;;9.43;7.03;;;9.00;99.90;;;;;;5113857;28;20389;-72
2021/05/29 03:54:58;;;;;;;9.57;6.87;;;9.00;99.90;;;;;;5114855;28;20518;-72
2021/05/29 03:57:24;;;;;;;8.00;7.20;;;9.00;99.90;;;;;;5114675;28;20189;-72
2021/05/29 03:59:49;;;;;;;8.37;7.17;;;9.00;99.90;;;;;;5114587;28;20246;-72
2021/05/29 04:02:15;;;;;;;7.13;6.37;;;9.00;99.90;;;;;;5115224;28;20396;-72
2021/05/29 04:04:41;;;;;;;7.87;7.07;;;9.00;99.90;;;;;;5114584;28;20587;-72
2021/05/29 04:07:06;;;;;;;7.80;6.57;;;9.00;99.90;;;;;;5114662;28;20154;-72
2021/05/29 04:09:32;;;;;;;8.83;6.60;;;9.00;99.90;;;;;;5115162;28;20685;-72
2021/05/29 04:11:58;;;;;;;7.33;6.63;;;9.00;99.90;;;;;;5114232;28;20178;-72
2021/05/29 04:14:23;;;;;;;7.40;6.77;;;9.10;99.90;;;;;;5114557;28;20150;-72
2021/05/29 04:16:49;;;;;;;7.63;6.93;;;9.00;99.90;;;;;;5114591;28;20498;-72
2021/05/29 04:19:15;;;;;;;11.53;6.50;;;9.10;99.90;;;;;;5113818;28;20166;-72
2021/05/29 04:21:41;;;;;;;7.53;6.30;;;9.00;99.90;;;;;;5114506;28;20937;-72
2021/05/29 04:24:07;;;;;;;6.90;6.20;;;9.00;99.90;;;;;;5115084;28;20166;-72
2021/05/29 04:26:33;;;;;;;7.47;6.80;;;9.00;99.90;;;;;;5114366;28;20690;-72
2021/05/29 04:28:58;;;;;;;7.03;6.33;;;9.10;99.90;;;;;;5113809;28;20570;-72
2021/05/29 04:31:24;;;;;;;9.20;7.27;;;9.10;99.90;;;;;;5114192;28;20246;-72
2021/05/29 04:33:49;;;;;;;7.83;7.13;;;9.10;99.90;;;;;;5113984;28;20204;-72
2021/05/29 04:36:15;;;;;;;9.80;8.23;;;9.10;99.90;;;;;;5114006;28;20622;-72
2021/05/29 04:38:41;;;;;;;7.40;6.80;;;9.10;99.90;;;;;;5114718;28;20182;-73
2021/05/29 04:41:06;;;;;;;8.47;7.67;;;9.10;99.90;;;;;;5114162;28;20158;-72
2021/05/29 04:43:33;;;;;;;8.90;7.70;;;9.10;99.90;;;;;;5113453;28;20560;-72
2021/05/29 04:45:58;;;;;;;8.27;7.47;;;9.20;99.90;;;;;;5102309;28;20638;-72
2021/05/29 04:48:25;;;;;;;7.70;7.00;;;9.20;99.90;;;;;;5113940;28;20395;-72
2021/05/29 04:53:37;;;;;;;8.80;7.90;;;9.30;99.90;;;;;;5100100;28;20440;-72
2021/05/29 04:56:03;;;;;;;8.03;7.23;;;9.30;99.90;;;;;;5113735;28;20400;-72
2021/05/29 04:58:28;;;;;;;7.77;7.00;;;9.30;99.90;;;;;;5113539;28;20181;-72
2021/05/29 05:00:55;;;;;;;8.07;6.80;;;9.40;99.90;;;;;;5113927;28;20449;-72
2021/05/29 05:03:21;;;;;;;7.97;6.60;;;9.40;99.90;;;;;;5113301;28;20179;-72
2021/05/29 05:05:47;;;;;;;7.63;6.93;;;9.50;99.90;;;;;;5113338;28;20412;-71
2021/05/29 05:08:12;;;;;;;7.33;6.67;;;9.50;99.90;;;;;;5113817;28;20206;-72
2021/05/29 05:10:38;;;;;;;7.00;6.40;;;9.50;99.90;;;;;;5113469;28;20468;-72
2021/05/29 05:13:04;;;;;;;11.10;7.70;;;9.60;99.90;;;;;;5112677;28;20198;-72
2021/05/29 05:15:30;;;;;;;7.10;5.90;;;9.60;99.90;;;;;;5093374;28;20208;-72
2021/05/29 05:17:55;;;;;;;7.83;7.03;;;9.60;99.90;;;;;;5093499;28;20196;-72
2021/05/29 05:20:21;;;;;;;7.93;7.13;;;9.70;99.90;;;;;;5105221;28;20201;-72
2021/05/29 05:22:47;;;;;;;10.70;7.50;;;9.80;99.90;;;;;;5114200;28;20161;-72
2021/05/29 05:25:14;;;;;;;7.40;6.80;;;9.80;99.90;;;;;;5113530;28;20215;-72
2021/05/29 05:27:41;;;;;;;7.53;6.83;;;9.80;99.90;;;;;;5113480;28;20398;-72
2021/05/29 05:30:09;;;;;;;8.03;6.83;;;9.90;99.90;;;;;;5112718;28;20464;-72
2021/05/29 05:32:35;;;;;;;7.57;6.97;;;9.90;99.90;;;;;;5113426;28;20386;-72
2021/05/29 05:35:01;;;;;;;6.13;5.53;;;10.00;99.90;;;;;;5113473;28;20395;-72
2021/05/29 05:37:26;;;;;;;8.50;7.40;;;10.10;99.90;;;;;;5113805;28;20412;-72
2021/05/29 05:39:52;;;;;;;6.23;5.63;;;10.20;99.90;;;;;;5113599;28;20174;-72
2021/05/29 05:42:18;;;;;;;6.83;6.23;;;10.20;99.90;;;;;;5113418;28;20186;-72
2021/05/29 05:44:44;;;;;;;6.87;6.30;;;10.30;99.90;;;;;;5113404;28;20270;-72
2021/05/29 05:47:10;;;;;;;8.17;7.37;;;10.40;99.90;;;;;;5113261;28;20485;-72
2021/05/29 05:49:35;;;;;;;6.57;5.97;;;10.40;99.90;;;;;;5113177;28;20211;-72
2021/05/29 05:52:01;;;;;;;8.43;7.00;;;10.50;99.90;;;;;;5113701;28;20163;-72
2021/05/29 05:54:27;;;;;;;7.37;6.30;;;10.60;99.90;;;;;;5113391;28;20174;-72
2021/05/29 05:56:52;;;;;;;7.20;6.50;;;10.70;99.90;;;;;;5112475;28;20176;-72
2021/05/29 05:59:18;;;;;;;8.40;6.80;;;10.80;99.90;;;;;;5113059;28;20193;-72
2021/05/29 06:01:45;;;;;;;7.30;6.60;;;11.00;99.90;;;;;;5113077;28;20164;-72
2021/05/29 06:04:10;;;;;;;6.93;6.23;;;11.10;99.90;;;;;;5113085;28;20150;-73
2021/05/29 06:06:36;;;;;;;7.70;7.00;;;11.20;99.90;;;;;;5113452;28;20410;-72
2021/05/29 06:09:02;;;;;;;7.57;6.87;;;11.30;99.90;;;;;;5112897;28;20186;-72
2021/05/29 06:11:28;;;;;;;9.20;7.40;;;11.50;99.90;;;;;;5112586;28;20174;-73
2021/05/29 06:19:18;;;;;;;8.00;7.20;;;11.80;99.90;;;;;;5103926;28;20429;-71
2021/05/29 06:21:48;;;;;;;8.30;7.50;;;12.00;99.90;;;;;;5090905;28;20472;-73
2021/05/29 06:24:16;;;;;;;9.00;8.10;;;12.10;99.90;;;;;;5090519;28;20772;-73
2021/05/29 06:26:42;;;;;;;10.63;8.57;;;12.20;99.90;;;;;;5090201;28;20492;-73
2021/05/29 06:29:08;;;;;;;11.90;8.10;;;12.20;99.90;;;;;;5072400;28;20828;-73
2021/05/29 06:31:33;;;;;;;10.23;9.33;;;12.30;99.90;;;;;;5070054;28;20393;-72
2021/05/29 06:33:59;;;;;;;10.53;9.00;;;12.50;99.90;;;;;;5075533;28;20689;-72
2021/05/29 06:36:25;;;;;;;8.40;7.70;;;12.60;99.90;;;;;;5090443;28;20622;-73
2021/05/29 06:38:50;;;;;;;9.10;8.20;;;12.60;99.90;;;;;;5090084;28;20159;-73
2021/05/29 06:41:17;;;;;;;8.40;7.60;;;12.70;99.90;;;;;;5089977;28;20167;-73
2021/05/29 06:43:43;;;;;;;10.50;9.50;;;12.90;99.90;;;;;;5090054;28;20182;-72
2021/05/29 06:46:08;;;;;;;10.03;9.03;;;12.90;99.90;;;;;;5072320;28;20414;-72
2021/05/29 06:48:34;;;;;;;9.13;8.33;;;13.10;99.90;;;;;;5069872;28;20178;-72
2021/05/29 06:51:00;;;;;;;8.63;7.80;;;13.20;99.90;;;;;;5069984;28;20159;-72
2021/05/29 06:53:34;;;;;;;8.77;8.00;;;13.30;99.90;;;;;;5069853;28;20243;-72
2021/05/29 06:58:52;;;;;;;8.03;7.23;;;13.50;99.90;;;;;;5074690;28;20437;-73
2021/05/29 07:01:20;;;;;;;8.50;7.60;;;13.60;99.90;;;;;;5086779;28;20870;-71
2021/05/29 07:03:47;;;;;;;7.73;6.87;;;13.70;99.90;;;;;;5069978;28;20401;-72
2021/05/29 07:06:13;;;;;;;8.13;6.63;;;13.90;99.90;;;;;;5069371;28;20917;-73
2021/05/29 07:08:39;;;;;;;7.53;6.63;;;14.00;99.90;;;;;;5069691;28;20406;-73
2021/05/29 07:11:05;;;;;;;6.97;6.27;;;14.20;99.90;;;;;;5070387;28;20402;-73
2021/05/29 07:13:31;;;;;;;9.03;6.40;;;14.30;99.90;;;;;;5089511;28;20586;-73
2021/05/29 07:15:57;;;;;;;6.53;6.00;;;14.40;99.90;;;;;;5089397;28;20462;-72
2021/05/29 07:18:25;;;;;;;7.10;5.73;;;14.60;99.90;;;;;;5088974;28;21031;-72
2021/05/29 07:20:50;;;;;;;5.80;4.90;;;14.80;99.90;;;;;;5089372;28;20401;-72
2021/05/29 07:23:16;;;;;;;5.23;4.73;;;15.00;99.90;;;;;;5081047;28;20957;-72
2021/05/29 07:25:42;;;;;;;6.40;5.10;;;15.30;99.90;;;;;;5068381;28;20209;-72
2021/05/29 07:28:08;;;;;;;4.33;3.73;;;15.90;99.90;;;;;;5055357;28;20161;-72
2021/05/29 07:30:34;;;;;;;3.80;3.50;;;17.00;99.90;;;;;;5055782;28;20163;-72
2021/05/29 07:33:00;;;;;;;5.50;3.33;;;18.40;99.90;;;;;;5055788;28;20483;-73
2021/05/29 07:35:27;;;;;;;3.53;2.90;;;20.00;98.80;;;;;;5058428;28;20199;-73
2021/05/29 07:37:53;;;;;;;3.83;3.03;;;21.50;93.60;;;;;;5075374;28;20198;-73
2021/05/29 07:40:19;;;;;;;4.40;3.47;;;23.00;81.90;;;;;;5075729;28;20460;-74
2021/05/29 07:42:44;;;;;;;3.53;3.23;;;24.40;70.00;;;;;;5075416;28;20156;-74
2021/05/29 07:45:11;;;;;;;3.77;2.90;;;25.20;60.00;;;;;;5061366;28;20179;-74
2021/05/29 07:47:36;;;;;;;3.83;3.43;;;25.40;56.30;;;;;;5055771;28;20152;-73
2021/05/29 07:50:05;;;;;;;3.30;3.00;;;25.60;55.90;;;;;;5055339;28;20397;-73
2021/05/29 07:52:30;;;;;;;3.60;3.27;;;25.60;54.30;;;;;;5059403;28;20179;-73
2021/05/29 07:54:56;;;;;;;3.37;3.00;;;26.00;53.40;;;;;;5075253;28;20445;-73
2021/05/29 07:57:21;;;;;;;3.90;3.50;;;26.50;51.20;;;;;;5075026;28;20152;-73
2021/05/29 07:59:47;;;;;;;5.10;3.27;;;26.90;49.40;;;;;;5074979;28;20223;-73
2021/05/29 08:02:13;;;;;;;4.13;3.70;;;26.90;48.40;;;;;;5075346;28;20167;-73
2021/05/29 08:04:39;;;;;;;3.43;3.13;;;26.80;48.00;;;;;;5075203;28;20160;-74
2021/05/29 08:07:05;;;;;;;3.53;2.83;;;27.40;47.70;;;;;;5075106;28;20635;-74
2021/05/29 08:09:31;;;;;;;3.47;2.80;;;28.00;45.80;;;;;;5070441;28;20419;-75
2021/05/29 08:11:56;;;;;;;5.07;3.30;;;28.70;45.00;;;;;;5063070;28;20182;-75
2021/05/29 08:14:22;;;;;;;3.87;3.13;;;29.40;42.90;;;;;;5063529;28;20168;-75
2021/05/29 08:16:48;;;;;;;3.47;2.53;;;29.80;41.30;;;;;;5055086;28;20167;-74
2021/05/29 08:19:13;;;;;;;4.30;3.00;;;29.00;40.60;;;;;;5055043;28;20168;-74
2021/05/29 08:21:40;;;;;;;9.17;3.40;;;28.40;42.10;;;;;;5054982;28;20240;-74
2021/05/29 08:24:07;;;;;;;4.73;3.80;;;28.70;42.40;;;;;;5054581;28;20153;-74
2021/05/29 08:26:35;;;;;;;4.00;2.87;;;29.80;41.20;;;;;;5058901;28;20417;-74
2021/05/29 08:29:02;;;;;;;3.67;2.40;;;30.40;39.00;;;;;;5064411;28;20410;-74
2021/05/29 08:31:28;;;;;;;3.00;2.10;;;30.90;37.30;;;;;;5055902;28;20895;-75
2021/05/29 08:33:53;;;;;;;4.60;2.23;;;31.80;36.10;;;;;;5055014;28;20482;-75
2021/05/29 08:36:19;;;;;;;2.40;2.20;;;32.70;34.10;;;;;;5054522;28;20537;-75
2021/05/29 08:38:45;;;;;;;3.00;2.70;;;34.00;33.10;;;;;;5053477;28;20622;-75
2021/05/29 08:41:11;;;;;;;3.33;3.00;;;34.60;31.40;;;;;;5054581;28;20201;-74
2021/05/29 08:43:37;;;;;;;2.90;2.60;;;34.90;30.00;;;;;;5059358;28;20182;-74
2021/05/29 08:46:03;;;;;;;2.83;2.47;;;35.50;29.90;;;;;;5074620;28;20397;-74
2021/05/29 08:48:29;;;;;;;3.73;3.43;;;35.80;29.40;;;;;;5074285;28;20398;-74
2021/05/29 08:53:44;;;;;;;4.53;3.40;;;36.50;28.20;;;;;;5073055;28;20676;-75
2021/05/29 08:56:10;;;;;;;3.57;3.10;;;36.70;27.70;;;;;;5072418;28;20498;-74
2021/05/29 08:58:36;;;;;;;3.20;2.90;;;36.70;27.90;;;;;;5053972;28;20430;-74
2021/05/29 09:01:04;;;;;;;3.90;3.10;;;36.60;27.70;;;;;;5062316;28;20913;-74
2021/05/29 09:03:51;;;;;;;4.20;3.23;;;36.60;27.30;;;;;;5074133;28;20259;-75
2021/05/29 09:06:35;;;;;;;3.37;2.50;;;36.40;27.70;;;;;;5053808;28;20464;-75
2021/05/29 09:09:06;;;;;;;4.37;3.50;;;35.90;27.60;;;;;;5053870;28;20395;-75
2021/05/29 09:14:35;;;;;;;4.33;3.93;;;35.20;28.60;;;;;;5070663;28;20512;-74
2021/05/29 09:17:19;;;;;;;4.20;3.73;;;35.10;29.30;;;;;;5068433;28;20485;-75
2021/05/29 09:22:58;;;;;;;4.80;4.40;;;34.60;29.00;;;;;;5152148;27;20495;-75
2021/05/29 09:25:25;;;;;;;4.43;3.93;;;32.10;32.30;;;;;;5151211;27;20399;-75
2021/05/29 09:36:05;;;;;;;5.93;5.53;;;27.30;40.70;;;;;;5054442;28;21076;-74
2021/05/29 09:41:30;;;;;;;7.07;6.03;;;26.50;42.40;;;;;;5111149;27;20527;-75
2021/05/29 09:46:54;;;;;;;7.00;6.40;;;26.60;42.10;;;;;;5110835;27;20542;-74
2021/05/29 09:49:20;;;;;;;9.50;7.00;;;26.40;43.50;;;;;;5109784;28;20400;-74
2021/05/29 09:51:45;;;;;;;8.57;7.87;;;25.80;44.30;;;;;;5104424;28;20405;-75
2021/05/29 09:54:11;;;;;;;8.50;7.60;;;25.20;46.20;;;;;;5090545;28;20681;-74
2021/05/29 09:56:42;;;;;;;6.70;6.10;;;24.80;45.30;;;;;;5091276;28;20182;-75
2021/05/29 09:59:10;;;;;;;8.07;6.90;;;24.60;45.20;;;;;;5093510;28;20436;-75
2021/05/29 10:07:13;;;;;;;9.73;8.67;;;24.10;47.00;;;;;;5070404;28;20558;-74
2021/05/29 10:09:40;;;;;;;10.70;9.60;;;24.00;48.70;;;;;;5056974;28;20420;-74
2021/05/29 10:12:06;;;;;;;10.83;9.83;;;24.00;48.30;;;;;;5061882;28;20406;-75
2021/05/29 10:14:33;;;;;;;10.90;10.00;;;23.70;47.80;;;;;;5070650;28;20834;-74
2021/05/29 10:17:01;;;;;;;9.30;8.50;;;23.50;49.10;;;;;;5070228;28;20386;-74
2021/05/29 10:19:28;;;;;;;10.30;9.40;;;23.10;49.40;;;;;;5070232;28;20381;-74
2021/05/29 10:21:54;;;;;;;10.00;9.10;;;22.70;49.70;;;;;;5070278;28;20378;-74
2021/05/29 10:24:22;;;;;;;10.43;9.63;;;22.50;51.30;;;;;;5070232;28;20482;-74
2021/05/29 10:26:50;;;;;;;10.00;9.17;;;22.40;52.20;;;;;;5066376;28;20495;-74
2021/05/29 10:29:17;;;;;;;10.37;9.47;;;22.30;51.70;;;;;;5069870;28;20409;-74
2021/05/29 10:31:43;;;;;;;9.90;9.10;;;22.30;51.60;;;;;;5070149;28;20409;-74
2021/05/29 10:34:09;;;;;;;8.20;7.00;;;22.20;52.30;;;;;;5069961;28;20767;-74
2021/05/29 11:03:28;;;;;;;6.93;6.17;;;20.40;55.70;;;;;;5111039;27;21026;-74
2021/05/29 11:05:59;;;;;;;8.57;7.67;;;20.00;55.10;;;;;;5110824;28;21001;-74
2021/05/29 11:19:33;;;;;;;7.70;6.73;;;19.60;56.60;;;;;;5131618;27;20503;-74
2021/05/29 11:24:41;;;;;;;7.60;6.90;;;19.40;58.20;;;;;;5070597;28;20521;-73
2021/05/29 11:30:18;;;;;;;6.90;6.20;;;19.10;57.50;;;;;;5106230;27;20530;-73
2021/05/29 11:35:46;;;;;;;6.43;5.90;;;19.10;57.50;;;;;;5071526;28;20524;-73
2021/05/29 11:46:16;;;;;;;6.60;6.00;;;18.90;57.60;;;;;;5070295;28;20647;-74
2021/05/29 11:48:45;;;;;;;8.60;6.83;;;18.40;60.20;;;;;;5070635;28;20508;-74
2021/05/29 11:51:13;;;;;;;6.77;6.07;;;18.30;60.50;;;;;;5060652;28;20409;-74
2021/05/29 11:53:42;;;;;;;8.77;6.97;;;18.20;61.40;;;;;;5050852;28;20403;-71
2021/05/29 11:56:08;;;;;;;7.97;6.70;;;18.20;63.60;;;;;;5067792;28;20402;-74
2021/05/29 12:01:20;;;;;;;9.00;7.10;;;18.20;63.70;;;;;;5070324;28;20512;-73
2021/05/29 12:03:49;;;;;;;8.80;7.30;;;18.10;65.10;;;;;;5071940;28;20409;-73
2021/05/29 12:06:36;;;;;;;7.80;6.53;;;18.00;66.60;;;;;;5070822;28;20378;-73
2021/05/29 12:09:06;;;;;;;8.30;7.10;;;17.80;67.90;;;;;;5054553;28;20407;-73
2021/05/29 12:11:34;;;;;;;6.80;6.10;;;17.80;68.50;;;;;;5070059;28;20456;-73
2021/05/29 12:27:23;;;;;;;8.33;5.83;;;17.70;71.20;;;;;;5070271;28;20515;-74
2021/05/29 12:29:49;;;;;;;7.97;7.17;;;17.60;71.30;;;;;;5070560;28;20405;-74
2021/05/29 12:32:32;;;;;;;10.57;7.30;;;17.60;75.00;;;;;;5070666;28;20405;-74
2021/05/29 12:34:58;;;;;;;7.50;6.70;;;17.70;75.80;;;;;;5070939;28;20436;-74
2021/05/29 12:37:26;;;;;;;7.80;6.17;;;17.70;75.70;;;;;;5070708;28;20382;-74
2021/05/29 12:50:38;;;;;;;6.07;5.57;;;17.90;78.20;;;;;;5071047;28;20509;-73
2021/05/29 12:55:47;;;;;;;7.70;6.90;;;17.90;79.10;;;;;;5090940;27;20932;-72
2021/05/29 13:14:49;;;;;;;7.50;6.20;;;17.90;80.40;;;;;;5070590;28;20516;-72
2021/05/29 13:17:32;;;;;;;7.53;6.47;;;17.80;81.30;;;;;;5052182;28;20441;-73
2021/05/29 13:20:03;;;;;;;7.50;6.80;;;17.70;82.50;;;;;;5061247;28;20171;-72
2021/05/29 13:22:31;;;;;;;7.20;5.93;;;17.60;83.20;;;;;;5070223;28;20425;-72
2021/05/29 13:27:44;;;;;;;7.40;4.60;;;17.70;84.80;;;;;;5090810;27;20515;-73
2021/05/29 13:30:16;;;;;;;5.70;5.20;;;17.80;84.20;;;;;;5090931;28;20404;-73
2021/05/29 13:32:42;;;;;;;5.87;5.27;;;17.90;84.60;;;;;;5085657;28;20413;-73
2021/05/29 13:35:09;;;;;;;6.97;5.90;;;17.90;84.10;;;;;;5083921;28;20411;-73
2021/05/29 13:37:35;;;;;;;6.27;5.67;;;17.80;83.20;;;;;;5090680;28;20405;-73
2021/05/29 13:40:03;;;;;;;5.20;4.70;;;17.60;83.60;;;;;;5090300;28;20457;-73
2021/05/29 13:42:28;;;;;;;8.00;4.50;;;17.60;85.60;;;;;;5090355;28;20943;-73
2021/05/29 13:44:54;;;;;;;5.43;4.90;;;17.50;84.90;;;;;;5090772;28;20420;-73
2021/05/29 13:47:19;;;;;;;6.60;5.90;;;17.60;84.10;;;;;;5091545;28;20191;-73
2021/05/29 13:49:46;;;;;;;6.37;5.77;;;17.50;84.70;;;;;;5083925;28;20178;-73
2021/05/29 13:52:11;;;;;;;5.13;4.63;;;17.40;85.30;;;;;;5090047;28;20620;-73
2021/05/29 13:54:37;;;;;;;5.83;5.23;;;17.30;84.40;;;;;;5090259;28;20409;-73
2021/05/29 13:57:04;;;;;;;7.37;6.57;;;17.20;85.90;;;;;;5090269;28;20262;-73
2021/05/29 13:59:30;;;;;;;7.17;6.47;;;17.20;87.20;;;;;;5090373;28;20433;-73
2021/05/29 14:01:56;;;;;;;6.20;5.70;;;17.20;88.40;;;;;;5087292;28;20425;-73
2021/05/29 14:04:21;;;;;;;8.60;5.50;;;17.20;88.90;;;;;;5069716;28;20180;-73
2021/05/29 14:06:48;;;;;;;7.80;6.40;;;17.10;88.00;;;;;;5070041;28;20287;-73
2021/05/29 14:09:14;;;;;;;5.10;4.70;;;17.10;87.30;;;;;;5070228;28;20159;-73
2021/05/29 14:11:41;;;;;;;5.57;5.00;;;17.00;86.80;;;;;;5075478;28;20414;-73
2021/05/29 14:14:08;;;;;;;6.73;5.07;;;16.90;86.50;;;;;;5089999;28;20385;-73
2021/05/29 14:16:34;;;;;;;6.73;5.90;;;16.80;90.40;;;;;;5088004;28;20396;-73
2021/05/29 14:19:01;;;;;;;7.07;6.17;;;16.80;90.30;;;;;;5069536;28;20413;-73
2021/05/29 14:21:27;;;;;;;6.43;5.77;;;16.80;90.30;;;;;;5070162;28;20427;-73
2021/05/29 14:23:53;;;;;;;6.53;4.80;;;16.90;90.10;;;;;;5076949;28;20412;-73
2021/05/29 14:26:20;;;;;;;7.50;6.07;;;16.80;88.80;;;;;;5089457;28;20547;-73
2021/05/29 14:28:45;;;;;;;6.20;5.60;;;16.80;89.70;;;;;;5090009;28;20167;-73
2021/05/29 14:31:11;;;;;;;7.30;6.47;;;16.70;90.60;;;;;;5089713;28;20397;-73
2021/05/29 14:33:39;;;;;;;7.97;7.17;;;16.80;90.80;;;;;;5069273;28;20155;-73
2021/05/29 14:36:06;;;;;;;9.53;7.60;;;16.70;91.00;;;;;;5069305;28;20232;-73
2021/05/29 14:38:32;;;;;;;6.33;4.97;;;16.70;91.50;;;;;;5058612;28;20505;-73
2021/05/29 14:40:58;;;;;;;6.00;5.50;;;16.60;89.50;;;;;;5063917;28;20415;-73
2021/05/29 14:43:24;;;;;;;7.07;6.37;;;16.60;90.70;;;;;;5075962;28;20401;-73
2021/05/29 14:45:50;;;;;;;8.10;7.00;;;16.60;90.40;;;;;;5075762;28;20441;-73
2021/05/29 14:48:16;;;;;;;9.10;8.10;;;16.60;90.90;;;;;;5076028;28;20160;-73
2021/05/29 14:50:50;;;;;;;11.13;7.70;;;16.70;90.60;;;;;;5076220;28;20170;-73
2021/05/29 14:53:17;;;;;;;8.30;6.47;;;16.70;88.60;;;;;;5076074;28;20854;-73
2021/05/29 14:55:43;;;;;;;12.00;7.77;;;16.60;89.50;;;;;;5075648;28;20505;-73
2021/05/29 14:58:09;;;;;;;9.30;7.43;;;16.60;91.10;;;;;;5065740;28;20406;-73
2021/05/29 15:00:35;;;;;;;10.30;8.47;;;16.60;92.20;;;;;;5056225;28;20401;-73
2021/05/29 15:03:03;;;;;;;11.70;8.87;;;16.50;92.10;;;;;;5055597;28;20418;-73
2021/05/29 15:05:29;;;;;;;8.90;7.77;;;16.60;91.50;;;;;;5055186;28;20564;-73
2021/05/29 15:07:54;;;;;;;6.80;6.10;;;16.50;90.30;;;;;;5055029;28;20460;-73
2021/05/29 15:10:25;;;;;;;10.53;6.90;;;16.50;89.60;;;;;;5055161;28;20163;-73